Time;durP1;ratioP1;P1;durP2;ratioP2;P2;SDS_P1;SDS_P2;PMS_P1;PMS_P2;Temp;Humidity;BMP_temperature;BMP_pressure;BME280_temperature;BME280_humidity;BME280_pressure;Samples;Min_cycle;Max_cycle;Signal;HPM_P1;HPM_P2
2021/05/01 00:02:25;;;;;;;30.97;17.80;;;;;;;14.66;48.65;101026.31;5118403;28;20479;-46
2021/05/01 00:04:52;;;;;;;26.40;15.47;;;;;;;14.74;48.25;101023.03;5117710;27;20520;-53
2021/05/01 00:07:19;;;;;;;23.07;15.00;;;;;;;14.69;48.48;101020.31;5118096;27;20869;-49
2021/05/01 00:09:46;;;;;;;28.57;14.93;;;;;;;14.73;48.37;101014.38;5117869;28;20469;-51
2021/05/01 00:12:12;;;;;;;24.87;15.47;;;;;;;14.82;48.14;101016.41;5116407;28;20484;-48
2021/05/01 00:14:39;;;;;;;22.80;15.40;;;;;;;14.86;48.02;101020.84;5118054;28;20975;-51
2021/05/01 00:17:06;;;;;;;26.73;16.63;;;;;;;14.89;48.16;101018.34;5116701;28;20563;-51
2021/05/01 00:19:34;;;;;;;25.13;15.63;;;;;;;14.77;48.01;101011.06;5117281;28;20464;-48
2021/05/01 00:22:00;;;;;;;25.13;14.97;;;;;;;14.75;48.32;101015.34;5113387;28;20553;-47
2021/05/01 00:24:28;;;;;;;24.50;14.73;;;;;;;14.74;48.74;101018.78;5098280;28;20575;-51
2021/05/01 00:26:54;;;;;;;26.10;15.20;;;;;;;14.96;47.77;101015.06;5100089;28;20475;-52
2021/05/01 00:29:21;;;;;;;25.90;15.53;;;;;;;14.74;48.66;101012.66;5107929;28;20457;-52
2021/05/01 00:31:48;;;;;;;30.83;17.30;;;;;;;14.74;48.44;101012.66;5103752;28;20455;-54
2021/05/01 00:34:15;;;;;;;22.43;14.67;;;;;;;14.71;48.52;101019.53;5106908;28;20479;-52
2021/05/01 00:36:41;;;;;;;46.47;25.20;;;;;;;14.67;49.37;101012.47;5106935;28;20473;-47
2021/05/01 00:39:12;;;;;;;40.57;21.63;;;;;;;14.42;50.21;101006.56;5107191;28;20463;-49
2021/05/01 00:41:40;;;;;;;63.30;34.47;;;;;;;14.50;50.59;101008.53;5104630;28;20475;-49
2021/05/01 00:44:07;;;;;;;59.10;32.60;;;;;;;14.51;50.05;101011.16;5106611;28;20508;-50
2021/05/01 00:46:34;;;;;;;45.90;26.03;;;;;;;14.59;49.95;101006.19;5104714;28;20487;-49
2021/05/01 00:49:01;;;;;;;45.80;24.27;;;;;;;14.43;50.29;101008.34;5103401;28;20477;-49
2021/05/01 00:51:27;;;;;;;26.80;17.90;;;;;;;14.58;49.46;101017.41;5094136;28;20464;-51
2021/05/01 00:53:54;;;;;;;25.97;15.80;;;;;;;14.51;50.43;101012.88;5095250;28;20484;-49
2021/05/01 00:56:21;;;;;;;30.47;17.30;;;;;;;14.44;50.10;101004.03;5093991;28;20461;-50
2021/05/01 00:58:48;;;;;;;40.80;21.00;;;;;;;14.64;49.32;101007.22;5095510;28;20439;-52
2021/05/01 01:01:18;;;;;;;21.37;12.97;;;;;;;14.87;48.75;101004.41;5093576;28;20486;-47
2021/05/01 01:03:46;;;;;;;21.63;13.20;;;;;;;14.88;49.67;100995.81;5095181;28;20494;-49
2021/05/01 01:06:14;;;;;;;34.10;19.63;;;;;;;14.80;49.31;100997.28;5094276;28;20480;-49
2021/05/01 01:08:40;;;;;;;25.90;13.90;;;;;;;15.01;48.87;101006.53;5095195;28;20467;-50
2021/05/01 01:11:07;;;;;;;37.50;21.67;;;;;;;14.67;49.65;100994.31;5093562;28;20484;-47
2021/05/01 01:13:34;;;;;;;21.87;13.10;;;;;;;14.87;48.91;100994.00;5094994;28;20483;-48
2021/05/01 01:16:02;;;;;;;20.70;13.10;;;;;;;14.63;49.32;100992.47;5093710;28;20931;-50
2021/05/01 01:18:29;;;;;;;24.13;14.03;;;;;;;14.66;49.16;100989.94;5095189;28;20485;-52
2021/05/01 01:20:58;;;;;;;22.03;12.70;;;;;;;14.84;48.77;100988.75;5094073;28;20462;-52
2021/05/01 01:23:26;;;;;;;21.93;13.37;;;;;;;14.65;49.46;100983.00;5095497;28;20428;-48
2021/05/01 01:25:52;;;;;;;24.40;13.20;;;;;;;14.99;48.29;100989.16;5094609;28;20506;-51
2021/05/01 01:28:19;;;;;;;19.87;12.40;;;;;;;14.94;48.47;100989.88;5095698;28;20463;-52
2021/05/01 01:30:46;;;;;;;71.63;35.37;;;;;;;14.84;48.76;100992.25;5093205;28;20478;-50
2021/05/01 01:33:12;;;;;;;27.93;15.33;;;;;;;14.84;48.93;100983.56;5095813;27;20567;-47
2021/05/01 01:35:39;;;;;;;20.83;12.10;;;;;;;14.67;48.62;100981.31;5115291;28;21008;-52
2021/05/01 01:38:07;;;;;;;33.73;19.13;;;;;;;14.70;49.41;100981.41;5116644;28;20460;-49
2021/05/01 01:40:37;;;;;;;26.43;15.40;;;;;;;14.83;49.84;100987.00;5114758;28;20475;-52
2021/05/01 01:43:05;;;;;;;38.93;21.43;;;;;;;15.05;48.47;100982.38;5116492;28;20445;-48
2021/05/01 01:45:32;;;;;;;19.43;11.83;;;;;;;15.01;48.89;100980.56;5115019;28;20479;-52
2021/05/01 01:47:59;;;;;;;21.10;11.80;;;;;;;14.97;49.17;100977.84;5116298;28;20526;-49
2021/05/01 01:50:27;;;;;;;28.50;15.00;;;;;;;15.13;49.01;100973.09;5114898;28;20477;-51
2021/05/01 01:52:53;;;;;;;24.33;14.37;;;;;;;15.21;47.36;100973.25;5116200;28;20484;-51
2021/05/01 01:55:22;;;;;;;30.83;16.77;;;;;;;15.08;48.45;100972.06;5113657;28;20468;-50
2021/05/01 01:57:50;;;;;;;22.77;13.00;;;;;;;14.99;47.90;100973.56;5115488;28;20463;-49
2021/05/01 02:00:19;;;;;;;18.80;11.73;;;;;;;14.95;47.83;100973.44;5114419;28;20471;-51
2021/05/01 02:02:46;;;;;;;16.60;9.50;;;;;;;14.83;48.14;100971.41;5116267;28;20475;-48
2021/05/01 02:05:13;;;;;;;14.73;9.80;;;;;;;15.02;48.35;100977.09;5114640;28;20933;-50
2021/05/01 02:07:40;;;;;;;19.80;12.03;;;;;;;15.03;48.35;100971.06;5115833;28;20455;-54
2021/05/01 02:10:09;;;;;;;41.47;17.43;;;;;;;15.16;47.55;100975.75;5114300;28;20473;-49
2021/05/01 02:12:38;;;;;;;24.27;13.60;;;;;;;15.09;47.59;100971.22;5115211;28;20919;-51
2021/05/01 02:15:11;;;;;;;14.47;9.57;;;;;;;14.96;48.22;100972.59;5114541;28;20456;-50
2021/05/01 02:17:39;;;;;;;16.00;9.93;;;;;;;15.25;47.30;100956.91;5115934;28;20451;-50
2021/05/01 02:20:07;;;;;;;18.50;10.37;;;;;;;15.24;47.54;100971.63;5114973;28;20821;-50
2021/05/01 02:22:34;;;;;;;14.43;10.00;;;;;;;15.28;46.77;100961.31;5115685;28;20477;-49
2021/05/01 02:25:01;;;;;;;19.23;10.83;;;;;;;15.27;46.95;100962.16;5113958;28;20453;-46
2021/05/01 02:27:27;;;;;;;21.20;12.23;;;;;;;15.33;46.75;100960.59;5115504;28;20927;-50
2021/05/01 02:29:54;;;;;;;17.00;10.70;;;;;;;15.48;46.02;100952.28;5114235;28;20461;-50
2021/05/01 02:32:21;;;;;;;16.60;9.90;;;;;;;15.29;46.81;100960.47;5115280;28;20572;-52
2021/05/01 02:34:48;;;;;;;17.40;10.03;;;;;;;15.23;47.17;100954.28;5115749;28;20460;-51
2021/05/01 02:37:14;;;;;;;21.60;12.77;;;;;;;15.23;47.27;100954.28;5114235;28;20491;-51
2021/05/01 02:39:41;;;;;;;16.90;9.80;;;;;;;15.14;47.45;100951.44;5115011;28;20875;-49
2021/05/01 02:42:08;;;;;;;15.57;10.63;;;;;;;15.12;47.25;100954.00;5115117;28;20484;-52
2021/05/01 02:44:34;;;;;;;46.73;23.00;;;;;;;14.93;47.77;100955.22;5120002;28;20449;-50
2021/05/01 02:47:01;;;;;;;20.47;12.07;;;;;;;14.92;47.98;100955.19;5117935;28;20475;-50
2021/05/01 02:49:28;;;;;;;18.87;11.33;;;;;;;14.93;47.72;100957.81;5119591;28;20552;-49
2021/05/01 02:51:55;;;;;;;31.50;17.20;;;;;;;14.89;47.89;100949.91;5118430;28;20569;-51
2021/05/01 02:54:22;;;;;;;59.00;29.50;;;;;;;15.17;47.23;100945.47;5119462;28;20479;-47
2021/05/01 02:56:48;;;;;;;18.80;10.77;;;;;;;15.03;47.40;100945.09;5118225;28;20476;-50
2021/05/01 02:59:15;;;;;;;24.50;11.47;;;;;;;15.10;47.42;100934.91;5119636;28;20456;-48
2021/05/01 03:01:41;;;;;;;19.00;11.37;;;;;;;14.93;48.12;100942.22;5107320;28;20563;-50
2021/05/01 03:04:08;;;;;;;42.60;20.03;;;;;;;14.86;48.04;100935.13;5109856;28;20486;-50
2021/05/01 03:06:35;;;;;;;17.63;10.87;;;;;;;15.06;47.54;100937.34;5108836;28;20479;-49
2021/05/01 03:09:02;;;;;;;26.00;12.20;;;;;;;15.06;47.36;100932.16;5108051;28;20551;-51
2021/05/01 03:11:29;;;;;;;19.83;11.50;;;;;;;15.06;47.54;100942.56;5106239;28;20932;-50
2021/05/01 03:13:56;;;;;;;48.33;24.37;;;;;;;14.93;48.23;100936.16;5107338;28;20523;-50
2021/05/01 03:16:22;;;;;;;19.10;11.07;;;;;;;14.86;48.05;100924.72;5108387;28;20472;-49
2021/05/01 03:18:49;;;;;;;32.33;17.50;;;;;;;15.06;47.55;100922.66;5108717;28;20465;-51
2021/05/01 03:21:16;;;;;;;39.10;19.87;;;;;;;15.10;47.39;100923.63;5108581;28;20474;-52
2021/05/01 03:23:44;;;;;;;19.57;10.83;;;;;;;14.92;47.98;100926.63;5107795;28;20450;-47
2021/05/01 03:26:10;;;;;;;35.67;19.57;;;;;;;14.93;48.08;100918.84;5106855;28;20481;-51
2021/05/01 03:28:37;;;;;;;20.00;12.00;;;;;;;14.64;48.58;100918.94;5109459;28;20452;-51
2021/05/01 03:31:04;;;;;;;16.50;11.57;;;;;;;15.05;47.96;100925.22;5106501;28;20855;-50
2021/05/01 03:33:30;;;;;;;22.30;12.87;;;;;;;14.74;48.51;100911.38;5107420;28;20472;-50
2021/05/01 03:35:57;;;;;;;15.77;10.77;;;;;;;14.87;48.42;100916.09;5108005;28;20476;-49
2021/05/01 03:38:23;;;;;;;24.97;13.37;;;;;;;14.93;48.11;100920.59;5107804;28;20463;-49
2021/05/01 03:40:51;;;;;;;21.07;12.00;;;;;;;14.65;48.75;100917.19;5106026;28;20475;-51
2021/05/01 03:43:19;;;;;;;23.17;12.27;;;;;;;14.89;48.01;100917.03;5109134;28;20454;-50
2021/05/01 03:45:46;;;;;;;20.97;11.17;;;;;;;14.76;48.44;100922.75;5106731;28;20932;-51
2021/05/01 03:48:13;;;;;;;21.57;12.03;;;;;;;14.93;48.12;100926.63;5107169;28;20467;-51
2021/05/01 03:50:39;;;;;;;17.20;10.87;;;;;;;14.80;48.41;100920.25;5110115;28;20816;-51
2021/05/01 03:53:06;;;;;;;19.43;11.10;;;;;;;14.67;48.62;100920.72;5106952;28;20451;-49
2021/05/01 03:55:33;;;;;;;23.13;13.10;;;;;;;14.74;48.32;100919.16;5106133;28;21001;-51
2021/05/01 03:58:00;;;;;;;22.03;12.90;;;;;;;14.57;48.79;100914.41;5108841;28;20546;-51
2021/05/01 04:00:27;;;;;;;38.27;19.90;;;;;;;14.66;48.65;100917.25;5106250;28;20482;-47
2021/05/01 04:02:54;;;;;;;38.57;19.60;;;;;;;14.64;49.08;100913.72;5106550;28;20468;-49
2021/05/01 04:05:21;;;;;;;23.13;14.20;;;;;;;14.56;49.17;100920.44;5107814;28;20461;-52
2021/05/01 04:07:48;;;;;;;21.30;12.53;;;;;;;14.58;48.76;100916.16;5108662;28;20536;-51
2021/05/01 04:10:15;;;;;;;48.70;24.07;;;;;;;14.40;49.41;100920.00;5106870;28;20570;-48
2021/05/01 04:12:41;;;;;;;23.03;14.10;;;;;;;14.40;49.51;100920.00;5108530;28;20812;-50
2021/05/01 04:15:10;;;;;;;55.17;28.17;;;;;;;14.38;49.93;100919.09;5106117;28;20500;-52
2021/05/01 04:17:37;;;;;;;34.97;19.20;;;;;;;14.39;49.06;100910.44;5106069;28;20531;-53
2021/05/01 04:20:04;;;;;;;41.20;22.93;;;;;;;14.22;49.72;100911.69;5107581;28;20902;-46
2021/05/01 04:22:31;;;;;;;20.67;12.33;;;;;;;13.84;50.43;100904.53;5109749;28;20801;-49
2021/05/01 04:24:58;;;;;;;20.10;11.37;;;;;;;13.77;50.79;100903.44;5106960;28;20465;-51
2021/05/01 04:27:24;;;;;;;19.63;12.10;;;;;;;14.12;49.91;100914.00;5106555;28;20912;-48
2021/05/01 04:29:51;;;;;;;139.00;62.03;;;;;;;14.43;50.40;100914.91;5105150;28;20479;-53
2021/05/01 04:32:18;;;;;;;32.57;18.83;;;;;;;14.34;49.59;100914.63;5107944;28;20821;-50
2021/05/01 04:34:45;;;;;;;26.03;14.60;;;;;;;14.15;49.92;100918.41;5106746;28;20482;-48
2021/05/01 04:37:12;;;;;;;20.43;11.90;;;;;;;14.43;49.16;100914.91;5105446;28;20472;-51
2021/05/01 04:39:39;;;;;;;32.70;16.97;;;;;;;13.81;50.41;100915.69;5107566;28;20563;-49
2021/05/01 04:42:06;;;;;;;24.30;13.50;;;;;;;13.58;51.94;100915.81;5107487;28;20996;-48
2021/05/01 04:44:35;;;;;;;28.27;15.90;;;;;;;13.95;49.86;100915.22;5105883;28;20772;-46
2021/05/01 04:47:02;;;;;;;21.43;11.63;;;;;;;13.63;50.58;100914.25;5104522;28;20476;-48
2021/05/01 04:49:30;;;;;;;107.23;49.13;;;;;;;14.03;50.19;100921.50;5106949;28;20485;-47
2021/05/01 04:51:58;;;;;;;31.20;15.93;;;;;;;14.29;49.70;100914.50;5106577;28;20559;-46
2021/05/01 04:54:25;;;;;;;32.23;12.50;;;;;;;14.17;49.03;100916.72;5106194;28;20794;-50
2021/05/01 04:56:51;;;;;;;16.67;10.77;;;;;;;14.32;48.59;100911.13;5104807;28;20522;-49
2021/05/01 04:59:19;;;;;;;19.90;11.40;;;;;;;13.90;49.55;100920.28;5107522;28;20475;-47
2021/05/01 05:01:45;;;;;;;39.37;21.17;;;;;;;14.08;49.81;100922.53;5104288;28;20474;-48
2021/05/01 05:04:12;;;;;;;36.83;20.40;;;;;;;14.06;49.71;100926.81;5106781;28;20451;-50
2021/05/01 05:06:39;;;;;;;26.03;14.80;;;;;;;14.13;49.80;100926.16;5105637;28;20471;-51
2021/05/01 05:09:06;;;;;;;30.83;17.23;;;;;;;13.98;49.94;100925.66;5106009;28;20847;-49
2021/05/01 05:11:33;;;;;;;25.67;13.87;;;;;;;14.04;49.51;100933.63;5103476;28;20756;-50
2021/05/01 05:14:00;;;;;;;31.73;17.97;;;;;;;14.02;49.28;100935.31;5105303;28;20481;-50
2021/05/01 05:16:27;;;;;;;28.77;16.13;;;;;;;14.17;49.76;100938.34;5105307;28;20488;-51
2021/05/01 05:18:55;;;;;;;31.93;16.20;;;;;;;14.15;49.23;100945.22;5106955;28;20547;-51
2021/05/01 05:21:22;;;;;;;28.30;15.80;;;;;;;13.91;49.23;100937.59;5103853;28;20474;-48
2021/05/01 05:23:49;;;;;;;24.43;13.57;;;;;;;14.12;49.00;100945.16;5106026;28;20631;-48
2021/05/01 05:26:16;;;;;;;26.90;14.60;;;;;;;14.23;49.10;100944.56;5105609;28;20789;-49
2021/05/01 05:28:43;;;;;;;35.33;18.83;;;;;;;14.29;48.59;100947.34;5105116;28;20454;-48
2021/05/01 05:31:09;;;;;;;21.67;12.80;;;;;;;14.24;48.96;100938.53;5104118;28;20478;-48
2021/05/01 05:33:36;;;;;;;29.70;15.07;;;;;;;14.15;48.90;100939.16;5106748;28;20482;-46
2021/05/01 05:36:03;;;;;;;17.90;10.90;;;;;;;13.88;49.06;100938.38;5103939;28;20468;-51
2021/05/01 05:38:29;;;;;;;19.80;11.10;;;;;;;14.40;47.99;100943.34;5105759;28;20467;-48
2021/05/01 05:40:57;;;;;;;21.90;11.77;;;;;;;13.81;48.65;100944.19;5104576;28;20575;-51
2021/05/01 05:43:24;;;;;;;23.37;13.17;;;;;;;14.64;47.71;100947.50;5106617;28;20450;-48
2021/05/01 05:45:50;;;;;;;17.53;10.07;;;;;;;14.64;46.09;100942.31;5103942;28;20486;-49
2021/05/01 05:48:17;;;;;;;15.93;9.70;;;;;;;14.41;47.13;100941.66;5106797;28;20549;-51
2021/05/01 05:50:45;;;;;;;15.77;9.90;;;;;;;14.04;47.59;100944.00;5103650;28;20455;-49
2021/05/01 05:53:11;;;;;;;18.27;11.17;;;;;;;14.18;47.56;100944.44;5105108;28;20801;-48
2021/05/01 05:55:38;;;;;;;18.43;9.83;;;;;;;14.35;47.19;100942.34;5105240;28;20484;-47
2021/05/01 05:58:05;;;;;;;25.53;12.93;;;;;;;14.63;46.56;100947.44;5104949;28;20462;-48
2021/05/01 06:00:32;;;;;;;25.83;13.03;;;;;;;14.07;47.39;100944.13;5103491;28;20914;-50
2021/05/01 06:03:00;;;;;;;17.37;10.17;;;;;;;13.99;47.57;100942.97;5106350;28;20447;-46
2021/05/01 06:05:29;;;;;;;17.20;10.60;;;;;;;14.65;46.67;100946.66;5105415;28;20554;-52
2021/05/01 06:07:59;;;;;;;15.93;8.80;;;;;;;14.23;47.22;100957.53;5106014;28;20452;-51
2021/05/01 06:10:27;;;;;;;19.10;11.90;;;;;;;14.03;47.46;100948.34;5104353;28;20476;-49
2021/05/01 06:12:53;;;;;;;14.40;9.10;;;;;;;14.34;46.88;100950.97;5105721;28;20508;-51
2021/05/01 06:15:21;;;;;;;30.97;15.83;;;;;;;14.44;46.63;100953.00;5102542;28;20438;-48
2021/05/01 06:17:50;;;;;;;19.50;11.00;;;;;;;14.44;46.58;100949.50;5104946;28;20526;-51
2021/05/01 06:20:17;;;;;;;28.10;14.93;;;;;;;14.45;46.73;100944.38;5102921;28;20500;-50
2021/05/01 06:22:44;;;;;;;12.97;8.43;;;;;;;14.57;46.05;100940.38;5105729;28;20471;-50
2021/05/01 06:25:12;;;;;;;17.67;9.07;;;;;;;14.61;45.99;100942.19;5103623;28;20506;-47
2021/05/01 06:27:39;;;;;;;20.20;10.33;;;;;;;14.69;45.98;100939.81;5103650;28;20521;-49
2021/05/01 06:30:07;;;;;;;16.60;9.30;;;;;;;14.32;46.62;100944.84;5102815;28;20925;-48
2021/05/01 06:32:34;;;;;;;19.70;10.03;;;;;;;14.32;46.33;100947.44;5104184;28;20469;-47
2021/05/01 06:35:02;;;;;;;17.50;9.27;;;;;;;14.69;45.79;100942.41;5106874;28;20483;-49
2021/05/01 06:37:29;;;;;;;16.30;8.87;;;;;;;14.12;47.90;100939.97;5104608;28;20487;-51
2021/05/01 06:40:01;;;;;;;17.10;9.40;;;;;;;13.78;47.49;100944.09;5102418;28;21203;-50
2021/05/01 06:42:29;;;;;;;40.73;19.67;;;;;;;14.31;46.48;100945.69;5104542;28;20481;-52
2021/05/01 06:44:58;;;;;;;15.63;9.40;;;;;;;14.65;46.11;100936.25;5102769;28;20451;-51
2021/05/01 06:47:26;;;;;;;16.53;9.53;;;;;;;14.36;47.40;100933.72;5105635;28;20969;-51
2021/05/01 06:50:03;;;;;;;32.33;18.13;;;;;;;14.56;46.32;100946.41;5103962;28;20470;-51
2021/05/01 06:52:31;;;;;;;22.90;11.93;;;;;;;14.05;47.36;100937.97;5104743;28;20956;-47
2021/05/01 06:55:01;;;;;;;14.20;9.73;;;;;;;14.26;47.20;100932.56;5102287;28;20610;-46
2021/05/01 06:57:28;;;;;;;14.57;9.30;;;;;;;13.94;47.75;100929.88;5104394;28;20551;-53
2021/05/01 06:59:57;;;;;;;17.33;9.30;;;;;;;14.37;46.82;100930.31;5102262;28;20762;-51
2021/05/01 07:02:25;;;;;;;20.43;11.83;;;;;;;14.27;46.79;100933.44;5103911;28;20481;-49
2021/05/01 07:04:52;;;;;;;16.57;9.73;;;;;;;14.57;46.67;100935.19;5105145;28;20539;-50
2021/05/01 07:07:22;;;;;;;28.93;15.40;;;;;;;14.40;47.05;100943.34;5105442;28;20559;-49
2021/05/01 07:09:49;;;;;;;18.03;10.47;;;;;;;14.40;46.42;100945.94;5104219;28;20548;-50
2021/05/01 07:12:18;;;;;;;16.53;9.00;;;;;;;14.81;45.75;100949.69;5103292;28;20482;-50
2021/05/01 07:14:45;;;;;;;31.43;17.60;;;;;;;15.45;44.78;100946.13;5103800;28;20568;-50
2021/05/01 07:17:13;;;;;;;17.70;9.90;;;;;;;15.29;44.93;100953.56;5102739;28;20566;-47
2021/05/01 07:19:41;;;;;;;17.80;10.33;;;;;;;14.96;45.61;100949.22;5105402;28;20510;-52
2021/05/01 07:22:08;;;;;;;18.50;7.93;;;;;;;14.96;45.32;100951.81;5103338;28;20488;-49
2021/05/01 07:24:36;;;;;;;14.00;8.70;;;;;;;14.93;45.54;100952.63;5103861;28;20458;-50
2021/05/01 07:27:04;;;;;;;20.83;12.00;;;;;;;15.22;45.46;100949.91;5102038;28;20983;-49
2021/05/01 07:29:34;;;;;;;14.83;9.43;;;;;;;14.87;46.73;100951.59;5107357;28;20466;-53
2021/05/01 07:32:03;;;;;;;24.90;12.27;;;;;;;14.74;45.78;100955.53;5107250;28;20478;-50
2021/05/01 07:34:30;;;;;;;17.90;9.43;;;;;;;15.02;46.13;100951.13;5109843;28;20480;-52
2021/05/01 07:37:02;;;;;;;31.00;16.40;;;;;;;14.88;45.25;100954.25;5106067;28;20929;-47
2021/05/01 07:39:31;;;;;;;22.87;12.70;;;;;;;14.74;45.73;100953.84;5107851;28;20462;-48
2021/05/01 07:42:00;;;;;;;14.70;8.90;;;;;;;14.67;45.15;100949.28;5105472;28;20465;-51
2021/05/01 07:44:30;;;;;;;15.00;9.27;;;;;;;15.23;47.44;100954.28;5107679;28;20511;-49
2021/05/01 07:46:58;;;;;;;21.07;11.40;;;;;;;15.33;44.38;100959.72;5105750;28;20496;-49
2021/05/01 07:49:25;;;;;;;29.27;14.00;;;;;;;15.06;44.92;100966.84;5107045;28;20454;-49
2021/05/01 07:51:52;;;;;;;54.67;26.33;;;;;;;15.69;44.11;100952.78;5106085;28;20571;-46
2021/05/01 07:54:19;;;;;;;24.83;13.03;;;;;;;15.50;43.94;100963.59;5108462;28;20488;-47
2021/05/01 07:56:46;;;;;;;19.33;12.17;;;;;;;15.37;43.96;100956.34;5107520;28;20566;-51
2021/05/01 07:59:14;;;;;;;12.60;8.10;;;;;;;15.48;44.16;100960.09;5108176;28;20460;-51
2021/05/01 08:01:42;;;;;;;21.30;9.93;;;;;;;15.41;43.74;100960.78;5104821;28;20476;-49
2021/05/01 08:04:09;;;;;;;16.27;9.90;;;;;;;15.90;43.42;100962.81;5109424;28;20513;-46
2021/05/01 08:06:36;;;;;;;14.63;8.40;;;;;;;16.03;42.44;100957.06;5107100;28;20474;-51
2021/05/01 08:09:03;;;;;;;18.90;7.83;;;;;;;15.96;42.88;100947.38;5106554;28;20496;-53
2021/05/01 08:11:30;;;;;;;13.70;8.13;;;;;;;15.70;43.09;100952.81;5106257;28;20556;-47
2021/05/01 08:13:56;;;;;;;15.63;8.03;;;;;;;15.68;43.50;100944.09;5108264;28;20484;-49
2021/05/01 08:16:24;;;;;;;27.83;13.90;;;;;;;15.83;42.71;100950.53;5104920;28;20478;-50
2021/05/01 08:18:51;;;;;;;17.40;9.47;;;;;;;16.16;42.52;100946.94;5107373;28;20459;-49
2021/05/01 08:21:17;;;;;;;22.60;12.50;;;;;;;16.17;42.01;100938.28;5101025;28;20954;-50
2021/05/01 08:23:44;;;;;;;25.77;14.70;;;;;;;16.76;41.02;100941.19;5097690;28;20454;-52
2021/05/01 08:26:10;;;;;;;13.37;7.87;;;;;;;16.67;41.40;100937.53;5109578;28;20476;-51
2021/05/01 08:28:37;;;;;;;20.67;12.40;;;;;;;16.82;42.03;100929.16;5117911;28;20551;-49
2021/05/01 08:31:04;;;;;;;18.23;8.30;;;;;;;16.58;41.50;100932.16;5115946;28;20488;-51
2021/05/01 08:33:32;;;;;;;20.70;12.17;;;;;;;16.38;41.94;100923.94;5117420;28;20967;-47
2021/05/01 08:35:58;;;;;;;13.83;9.07;;;;;;;15.95;43.58;100924.81;5116570;28;20473;-47
2021/05/01 08:38:25;;;;;;;20.13;9.60;;;;;;;16.70;42.39;100927.19;5117524;28;20461;-47
2021/05/01 08:40:52;;;;;;;17.10;10.07;;;;;;;16.82;41.60;100929.16;5115839;28;20480;-48
2021/05/01 08:43:19;;;;;;;15.23;8.47;;;;;;;16.72;41.50;100922.88;5117678;28;20459;-48
2021/05/01 08:45:47;;;;;;;18.27;11.07;;;;;;;16.67;41.61;100924.53;5116190;28;20477;-48
2021/05/01 08:48:14;;;;;;;12.53;8.30;;;;;;;17.00;41.43;100922.53;5114155;28;22012;-51
2021/05/01 08:50:47;;;;;;;16.57;9.20;;;;;;;17.24;40.32;100929.06;5095957;28;20560;-48
2021/05/01 08:53:14;;;;;;;16.73;9.23;;;;;;;16.95;40.73;100925.06;5099550;28;20469;-49
2021/05/01 08:55:41;;;;;;;17.20;10.00;;;;;;;17.92;39.24;100921.38;5095677;28;20474;-47
2021/05/01 08:58:09;;;;;;;15.40;9.13;;;;;;;17.51;39.70;100914.69;5096598;28;20891;-48
2021/05/01 09:00:37;;;;;;;13.43;7.90;;;;;;;17.28;40.03;100918.69;5095154;28;20484;-46
2021/05/01 09:03:06;;;;;;;12.80;7.30;;;;;;;17.47;39.57;100920.72;5096822;28;20485;-46
2021/05/01 09:05:35;;;;;;;13.93;8.40;;;;;;;16.74;40.18;100912.50;5113357;28;20482;-48
2021/05/01 09:08:07;;;;;;;9.50;6.40;;;;;;;16.55;40.74;100919.97;5106984;28;20822;-46
2021/05/01 09:10:38;;;;;;;16.33;9.50;;;;;;;17.25;40.08;100917.75;5095052;28;20572;-48
2021/05/01 09:13:12;;;;;;;14.30;8.00;;;;;;;17.30;40.03;100910.91;5096337;28;20482;-48
2021/05/01 09:15:39;;;;;;;18.60;8.67;;;;;;;17.49;40.09;100906.00;5094966;28;20480;-46
2021/05/01 09:18:06;;;;;;;12.83;7.97;;;;;;;17.30;39.54;100899.59;5096465;28;20461;-47
2021/05/01 09:20:34;;;;;;;14.87;8.90;;;;;;;17.20;40.05;100904.66;5096113;28;20488;-49
2021/05/01 09:23:01;;;;;;;14.37;8.40;;;;;;;17.31;40.20;100907.44;5100287;28;20765;-49
2021/05/01 09:25:31;;;;;;;13.93;7.70;;;;;;;18.13;38.68;100910.41;5094915;28;20508;-47
2021/05/01 09:27:59;;;;;;;14.67;7.53;;;;;;;18.82;37.41;100908.56;5096088;28;20454;-46
2021/05/01 09:30:27;;;;;;;13.07;7.47;;;;;;;19.01;36.53;100905.25;5094669;28;20800;-48
2021/05/01 09:33:18;;;;;;;12.07;7.47;;;;;;;18.82;36.76;100898.09;5101261;28;20481;-48
2021/05/01 09:35:46;;;;;;;14.27;7.77;;;;;;;19.11;35.91;100897.50;5115093;28;20471;-50
2021/05/01 09:38:14;;;;;;;11.50;7.37;;;;;;;18.97;35.62;100895.63;5116254;28;20459;-48
2021/05/01 09:40:46;;;;;;;18.83;7.03;;;;;;;17.48;38.25;100901.63;5114463;28;20477;-47
2021/05/01 09:43:12;;;;;;;12.93;7.57;;;;;;;17.70;37.59;100894.09;5116580;28;20455;-48
2021/05/01 09:45:39;;;;;;;11.43;7.17;;;;;;;18.25;36.57;100900.97;5114458;28;20475;-46
2021/05/01 09:48:14;;;;;;;11.33;7.20;;;;;;;17.28;37.77;100899.59;5116193;28;20958;-48
2021/05/01 09:50:42;;;;;;;12.23;7.37;;;;;;;17.92;37.29;100896.19;5114660;28;20834;-45
2021/05/01 09:53:12;;;;;;;12.67;7.20;;;;;;;18.04;37.97;100902.38;5115883;28;20487;-48
2021/05/01 09:55:44;;;;;;;12.03;7.80;;;;;;;18.52;36.50;100899.53;5115156;28;20768;-47
2021/05/01 09:58:13;;;;;;;12.00;7.80;;;;;;;18.57;35.91;100893.47;5116032;28;20792;-47
2021/05/01 10:00:40;;;;;;;12.67;8.20;;;;;;;18.62;35.47;100888.31;5113865;28;20915;-48
2021/05/01 10:03:27;;;;;;;13.00;7.10;;;;;;;18.65;36.61;100893.56;5115970;28;20998;-48
2021/05/01 10:05:56;;;;;;;17.00;7.67;;;;;;;18.20;36.79;100886.13;5094862;28;20478;-48
2021/05/01 10:08:27;;;;;;;11.13;7.00;;;;;;;18.68;36.19;100875.31;5095527;28;20457;-52
2021/05/01 10:10:55;;;;;;;11.40;6.83;;;;;;;17.47;37.21;100877.25;5112908;28;20468;-49
2021/05/01 10:13:50;;;;;;;11.30;6.57;;;;;;;18.45;36.83;100881.19;5115873;28;20461;-50
2021/05/01 10:16:17;;;;;;;11.07;6.93;;;;;;;19.02;36.05;100874.75;5114446;28;20474;-49
2021/05/01 10:19:17;;;;;;;12.33;7.23;;;;;;;19.32;34.97;100877.66;5115960;28;20467;-50
2021/05/01 10:21:46;;;;;;;13.57;7.57;;;;;;;19.19;35.08;100874.94;5032209;28;20559;-46
2021/05/01 10:24:13;;;;;;;12.10;6.80;;;;;;;19.36;34.48;100871.56;5032731;28;20465;-48
2021/05/01 10:26:43;;;;;;;10.60;7.03;;;;;;;19.12;35.33;100865.31;5065713;28;20922;-50
2021/05/01 10:29:10;;;;;;;11.47;6.70;;;;;;;18.76;35.99;100859.69;5095105;28;20878;-48
2021/05/01 10:31:52;;;;;;;10.87;6.80;;;;;;;19.18;35.30;100862.72;5093189;28;20509;-45
2021/05/01 10:34:21;;;;;;;13.17;7.47;;;;;;;18.98;35.55;100855.53;5102969;28;20475;-46
2021/05/01 10:36:49;;;;;;;12.77;6.90;;;;;;;19.49;35.04;100846.38;5105060;28;20480;-50
2021/05/01 10:39:16;;;;;;;13.80;8.10;;;;;;;20.00;34.31;100837.94;5103788;28;20945;-46
2021/05/01 10:41:55;;;;;;;10.83;7.20;;;;;;;20.08;34.32;100837.09;5102162;28;20480;-46
2021/05/01 10:44:22;;;;;;;18.60;9.80;;;;;;;19.73;34.50;100829.06;5104633;28;20453;-48
2021/05/01 10:46:49;;;;;;;9.27;6.27;;;;;;;19.46;35.73;100836.75;5102536;28;20467;-49
2021/05/01 10:49:16;;;;;;;9.93;6.57;;;;;;;20.25;33.43;100831.00;5105847;28;20509;-49
2021/05/01 10:51:44;;;;;;;10.20;6.97;;;;;;;20.43;33.52;100826.69;5103484;28;20945;-49
2021/05/01 10:54:13;;;;;;;9.33;6.77;;;;;;;19.39;34.57;100824.50;5109573;28;20582;-46
2021/05/01 10:56:44;;;;;;;12.97;7.17;;;;;;;19.43;33.99;100826.25;5113991;28;20527;-50
2021/05/01 10:59:12;;;;;;;10.80;6.90;;;;;;;19.43;34.01;100821.03;5115449;28;20479;-51
2021/05/01 11:01:47;;;;;;;12.27;7.60;;;;;;;19.48;33.86;100827.16;5095266;28;20517;-48
2021/05/01 11:04:18;;;;;;;10.30;6.90;;;;;;;19.63;34.27;100830.75;5104540;28;20478;-49
2021/05/01 11:06:47;;;;;;;10.13;6.67;;;;;;;19.56;33.60;100816.75;5105038;28;20483;-49
2021/05/01 11:09:23;;;;;;;11.50;7.20;;;;;;;19.49;33.81;100821.06;5098839;28;20882;-47
2021/05/01 11:11:50;;;;;;;10.40;7.00;;;;;;;19.51;33.98;100819.34;5097237;28;20558;-48
2021/05/01 11:14:23;;;;;;;10.20;6.97;;;;;;;18.77;35.91;100814.44;5098830;28;20493;-48
2021/05/01 11:16:51;;;;;;;11.20;7.10;;;;;;;19.65;34.85;100815.94;5103395;28;20493;-50